Wetterdaten: Mai 2014
Datum Temp Feuchte Luftdruck Regen Wind Richtung Sonnenschein UV Solar Windben
01.05.2014 12,6 C 89 % 1010,0 hPa 0,6 l/m 1,4 km/h N-NO 3,00 h 1,9 UV-I 215 W/m 4,4 km/h
02.05.2014 6,9 C 94 % 1017,2 hPa 1,4 l/m 2,8 km/h N-NO 0,00 h 0,8 UV-I 72 W/m 5,6 km/h
03.05.2014 6,3 C 74 % 1023,8 hPa 0,0 l/m 2,2 km/h N 11,75 h 2,8 UV-I 469 W/m 5,2 km/h
04.05.2014 5,3 C 80 % 1022,7 hPa 0,0 l/m 0,3 km/h N 6,08 h 2,2 UV-I 317 W/m 2,4 km/h
05.05.2014 9,3 C 74 % 1016,7 hPa 0,0 l/m 1,2 km/h SO 10,50 h 2,6 UV-I 385 W/m 4,4 km/h
06.05.2014 12,6 C 82 % 1008,6 hPa 5,8 l/m 5,7 km/h S 2,83 h 1,5 UV-I 185 W/m 11,6 km/h
07.05.2014 10,8 C 86 % 1009,8 hPa 9,2 l/m 4,4 km/h S-SW 2,58 h 2,0 UV-I 243 W/m 11,3 km/h
08.05.2014 10,5 C 87 % 1009,9 hPa 4,0 l/m 4,5 km/h S 0,83 h 1,6 UV-I 170 W/m 13,3 km/h
09.05.2014 10,6 C 90 % 1010,0 hPa 17,4 l/m 4,6 km/h S-SW 1,92 h 2,1 UV-I 223 W/m 23,4 km/h
10.05.2014 10,1 C 95 % 1007,0 hPa 6,8 l/m 9,6 km/h S 0,17 h 1,1 UV-I 113 W/m 18,9 km/h
11.05.2014 9,3 C 85 % 1002,9 hPa 6,2 l/m 10,2 km/h S-SW 2,08 h 1,7 UV-I 213 W/m 26,5 km/h
12.05.2014 8,9 C 90 % 1008,5 hPa 2,6 l/m 2,7 km/h S-SW 1,25 h 1,8 UV-I 176 W/m 14,1 km/h
13.05.2014 8,8 C 88 % 1015,8 hPa 11,0 l/m 1,2 km/h W 2,33 h 1,7 UV-I 193 W/m 4,4 km/h
14.05.2014 7,2 C 94 % 1026,8 hPa 6,8 l/m 1,5 km/h NW 1,50 h 1,3 UV-I 147 W/m 7,3 km/h
15.05.2014 8,4 C 90 % 1033,5 hPa 0,2 l/m 1,0 km/h N-NW 1,75 h 1,9 UV-I 180 W/m 4,8 km/h
16.05.2014 10,4 C 79 % 1028,8 hPa 0,0 l/m 2,4 km/h N 7,92 h 2,9 UV-I 396 W/m 6,0 km/h
17.05.2014 12,4 C 83 % 1021,3 hPa 0,0 l/m 0,3 km/h N-NO 3,67 h 2,2 UV-I 273 W/m 2,8 km/h
18.05.2014 13,6 C 85 % 1012,8 hPa 0,4 l/m 0,4 km/h N 7,50 h 2,8 UV-I 359 W/m 2,8 km/h
19.05.2014 16,2 C 78 % 1008,5 hPa 0,0 l/m 0,2 km/h SO 8,75 h 3,0 UV-I 403 W/m 4,0 km/h
20.05.2014 20,0 C 62 % 1011,6 hPa 0,0 l/m 1,4 km/h SO 10,83 h 3,1 UV-I 442 W/m 7,7 km/h
21.05.2014 20,8 C 65 % 1010,3 hPa 0,0 l/m 3,3 km/h SO 10,17 h 2,9 UV-I 387 W/m 10,9 km/h
22.05.2014 19,2 C 67 % 1007,6 hPa 1,2 l/m 1,3 km/h SO 8,50 h 2,5 UV-I 335 W/m 5,6 km/h
23.05.2014 13,8 C 92 % 1010,3 hPa 6,0 l/m 0,0 km/h S-SW 3,25 h 1,5 UV-I 176 W/m 0,0 km/h
24.05.2014 16,3 C 83 % 1014,8 hPa 4,6 l/m 0,1 km/h NW 6,17 h 2,4 UV-I 310 W/m 1,2 km/h
25.05.2014 15,4 C 72 % 1019,5 hPa 0,0 l/m 0,8 km/h NO 11,08 h 3,3 UV-I 469 W/m 2,0 km/h
26.05.2014 16,9 C 82 % 1013,6 hPa 3,0 l/m 2,1 km/h NO 7,17 h 2,7 UV-I 324 W/m 6,8 km/h
27.05.2014 14,0 C 95 % 1008,9 hPa 3,8 l/m 0,1 km/h N-NO 0,00 h 1,1 UV-I 87 W/m 2,0 km/h
28.05.2014 10,1 C 97 % 1011,6 hPa 29,0 l/m 0,2 km/h NO 0,00 h 1,0 UV-I 88 W/m 3,6 km/h
29.05.2014 8,0 C 91 % 1017,8 hPa 1,6 l/m 0,6 km/h NO 0,00 h 1,3 UV-I 133 W/m 3,2 km/h
30.05.2014 12,0 C 78 % 1021,6 hPa 0,0 l/m 3,0 km/h S-SO 9,17 h 3,1 UV-I 422 W/m 5,6 km/h
31.05.2014 13,2 C 72 % 1020,9 hPa 0,0 l/m 0,4 km/h N-NW 11,83 h 3,4 UV-I 469 W/m 4,0 km/h
Min-Datum 04.05.14 20.05.14 11.05.14 20 Tage 01.05.14 - - - - 01.05.14
Min-Zeit 06:10 16:20 05:05 - 00:00 - - - - 00:00
Minimum -0,4 C 36 % 1001,4 hPa - 0,0 km/h - - - - 0,0 km/h
Max-Datum 22.05.14 02.05.14 15.05.14 28.05.14 11.05.14 - 31.05.14 25.05.14 17.05.14 09.05.14
Max-Zeit 14:00 09:35 23:55 02:30 12:40 - 21:15 13:00 13:30 18:00
Maximum 26,9 C 100 % 1034,8 hPa 29,0 l/m 27,3 km/h
S-SW
- 11,75 h 7,0 UV-I 1197 W/m 49,9 km/h
S-SW
Durchschnitt 11,9 C 83 % 1014,9 hPa #121,6 l/m 2,2 km/h S #154:35 h 2,1 UV-I 270 W/m 7,3 km/h

Durchschnitt Minimum Temp.7,1 C
Durchschnitt Maximum Temp.17,0 C